createdAt,value
2023-04-08T00:00:58.136Z,9.27
2023-04-08T00:03:59.378Z,9.27
2023-04-08T00:07:03.181Z,9.23
2023-04-08T00:10:04.147Z,9.22
2023-04-08T00:13:07.172Z,9.24
2023-04-08T00:16:09.152Z,9.26
2023-04-08T00:19:09.233Z,9.27
2023-04-08T00:22:09.222Z,9.25
2023-04-08T00:25:09.181Z,9.24
2023-04-08T00:28:10.169Z,9.24
2023-04-08T00:31:11.270Z,9.21
2023-04-08T00:34:12.248Z,9.18
2023-04-08T00:37:12.261Z,9.12
2023-04-08T00:40:12.198Z,9.07
2023-04-08T00:43:12.237Z,9.06
2023-04-08T00:46:12.254Z,9.06
2023-04-08T00:49:13.207Z,9.08
2023-04-08T00:52:13.228Z,9.10
2023-04-08T00:55:14.246Z,9.13
2023-04-08T00:58:14.236Z,9.15
2023-04-08T01:01:25.313Z,9.17
2023-04-08T01:04:37.310Z,9.19
2023-04-08T01:07:57.233Z,9.20
2023-04-08T01:10:58.267Z,9.22
2023-04-08T01:13:58.236Z,9.26
2023-04-08T01:16:58.485Z,9.26
2023-04-08T01:19:59.226Z,9.25
2023-04-08T01:23:11.320Z,9.23
2023-04-08T01:26:12.291Z,9.20
2023-04-08T01:29:13.283Z,9.19
2023-04-08T01:32:13.371Z,9.15
2023-04-08T01:35:13.300Z,9.10
2023-04-08T01:38:15.317Z,9.08
2023-04-08T01:41:15.284Z,9.06
2023-04-08T01:44:19.303Z,9.01
2023-04-08T01:47:20.343Z,8.95
2023-04-08T01:50:22.318Z,8.90
2023-04-08T01:53:23.312Z,8.87
2023-04-08T01:56:25.330Z,8.88
2023-04-08T01:59:26.353Z,8.88
2023-04-08T02:02:26.636Z,8.90
2023-04-08T02:05:27.358Z,8.91
2023-04-08T02:08:28.352Z,8.91
2023-04-08T02:11:31.579Z,8.86
2023-04-08T02:14:32.402Z,8.82
2023-04-08T02:17:44.394Z,8.80
2023-04-08T02:20:50.384Z,8.77
2023-04-08T02:23:52.364Z,8.76
2023-04-08T02:26:53.446Z,8.75
2023-04-08T02:29:53.403Z,8.71
2023-04-08T02:32:54.467Z,8.69
2023-04-08T02:35:54.525Z,8.66
2023-04-08T02:39:03.405Z,8.66
2023-04-08T02:42:04.499Z,8.64
2023-04-08T02:45:05.439Z,8.62
2023-04-08T02:48:06.536Z,8.57
2023-04-08T02:51:21.987Z,8.58
2023-04-08T02:54:22.437Z,8.60
2023-04-08T02:57:25.498Z,8.63
2023-04-08T03:00:27.633Z,8.65
2023-04-08T03:03:37.788Z,8.66
2023-04-08T03:06:39.430Z,8.67
2023-04-08T03:09:39.503Z,8.70
2023-04-08T03:12:40.489Z,8.71
2023-04-08T03:15:41.458Z,8.75
2023-04-08T03:18:42.500Z,8.77
2023-04-08T03:21:42.574Z,8.75
2023-04-08T03:24:43.500Z,8.72
2023-04-08T03:27:46.575Z,8.73
2023-04-08T03:30:46.490Z,8.75
2023-04-08T03:33:50.543Z,8.73
2023-04-08T03:36:53.602Z,8.70
2023-04-08T03:39:53.566Z,8.67
2023-04-08T03:42:53.575Z,8.65
2023-04-08T03:45:53.552Z,8.64
2023-04-08T03:48:48.343Z,8.65
2023-04-08T03:51:49.528Z,8.68
2023-04-08T03:54:49.534Z,8.72
2023-04-08T03:57:49.589Z,8.73
2023-04-08T04:00:51.539Z,8.73
2023-04-08T04:03:59.715Z,8.77
2023-04-08T04:06:59.605Z,8.83
2023-04-08T04:10:02.551Z,8.86
2023-04-08T04:13:02.643Z,8.89
2023-04-08T04:16:04.772Z,8.90
2023-04-08T04:19:05.615Z,8.90
2023-04-08T04:22:10.605Z,8.90
2023-04-08T04:25:10.680Z,8.93
2023-04-08T04:28:11.605Z,8.96
2023-04-08T04:31:14.690Z,8.93
2023-04-08T04:34:17.593Z,8.93
2023-04-08T04:37:18.591Z,8.99
2023-04-08T04:40:21.661Z,9.07
2023-04-08T04:43:22.629Z,9.18
2023-04-08T04:46:23.703Z,9.26
2023-04-08T04:49:24.602Z,9.30
2023-04-08T04:52:28.634Z,9.37
2023-04-08T04:55:31.587Z,9.40
2023-04-08T04:58:31.661Z,9.41
2023-04-08T05:01:31.810Z,9.37
2023-04-08T05:04:33.660Z,9.34
2023-04-08T05:07:39.811Z,9.31
2023-04-08T05:10:39.729Z,9.35
2023-04-08T05:13:46.667Z,9.47
2023-04-08T05:16:47.700Z,9.55
2023-04-08T05:19:48.671Z,9.63
2023-04-08T05:22:55.695Z,9.67
2023-04-08T05:25:57.726Z,9.74
2023-04-08T05:29:01.669Z,9.86
2023-04-08T05:32:02.775Z,9.99
2023-04-08T05:35:02.795Z,10.08
2023-04-08T05:38:03.777Z,10.14
2023-04-08T05:41:05.756Z,10.21
2023-04-08T05:44:05.775Z,10.31
2023-04-08T05:47:06.842Z,10.42
2023-04-08T05:50:06.843Z,10.56
2023-04-08T05:53:06.747Z,10.76
2023-04-08T05:56:07.791Z,11.04
2023-04-08T05:59:07.782Z,11.37
2023-04-08T06:02:07.948Z,11.63
2023-04-08T06:05:07.810Z,11.75
2023-04-08T06:08:08.787Z,11.74
2023-04-08T06:11:12.758Z,11.78
2023-04-08T06:14:13.813Z,11.85
2023-04-08T06:17:13.791Z,11.88
2023-04-08T06:20:14.809Z,11.93
2023-04-08T06:23:14.850Z,12.02
2023-04-08T06:26:15.833Z,12.13
2023-04-08T06:29:15.766Z,12.13
2023-04-08T06:32:16.862Z,12.16
2023-04-08T06:35:16.879Z,12.28
2023-04-08T06:38:17.818Z,12.38
2023-04-08T06:41:17.882Z,12.49
2023-04-08T06:44:18.179Z,12.46
2023-04-08T06:47:18.834Z,12.41
2023-04-08T06:50:18.863Z,12.39
2023-04-08T06:53:19.916Z,12.35
2023-04-08T06:56:19.877Z,12.42
2023-04-08T06:59:20.865Z,12.56
2023-04-08T07:02:22.024Z,12.92
2023-04-08T07:05:22.944Z,13.47
2023-04-08T07:08:22.916Z,14.06
2023-04-08T07:11:23.900Z,14.58
2023-04-08T07:14:35.964Z,14.99
2023-04-08T07:17:39.937Z,15.29
2023-04-08T07:20:43.986Z,15.39
2023-04-08T07:23:47.120Z,15.61
2023-04-08T07:26:47.009Z,15.81
2023-04-08T07:29:47.957Z,16.12
2023-04-08T07:32:48.055Z,16.60
2023-04-08T07:35:48.022Z,17.25
2023-04-08T07:38:51.066Z,18.02
2023-04-08T07:41:56.958Z,18.74
2023-04-08T07:44:58.968Z,19.42
2023-04-08T07:48:00.102Z,20.05
2023-04-08T07:51:08.793Z,20.65
2023-04-08T07:54:11.046Z,21.07
2023-04-08T07:57:10.944Z,21.08
2023-04-08T08:00:14.374Z,21.36
2023-04-08T08:03:34.230Z,21.70
2023-04-08T08:06:35.135Z,22.25
2023-04-08T08:09:35.069Z,22.68
2023-04-08T08:12:34.983Z,22.81
2023-04-08T08:15:39.106Z,23.01
2023-04-08T08:18:40.333Z,23.41
2023-04-08T08:21:43.073Z,23.82
2023-04-08T08:24:43.111Z,24.12
2023-04-08T08:27:43.035Z,24.44
2023-04-08T08:30:44.082Z,24.65
2023-04-08T08:33:45.029Z,24.77
2023-04-08T08:36:48.023Z,24.81
2023-04-08T08:39:49.058Z,24.51
2023-04-08T08:42:51.217Z,24.41
2023-04-08T08:45:54.085Z,24.73
2023-04-08T08:48:55.067Z,25.00
2023-04-08T08:51:58.127Z,25.10
2023-04-08T08:55:00.637Z,25.37
2023-04-08T08:58:04.220Z,25.46
2023-04-08T09:01:06.186Z,25.05
2023-04-08T09:04:38.276Z,24.53
2023-04-08T09:07:38.173Z,23.58
2023-04-08T09:10:41.274Z,23.10
2023-04-08T09:13:48.600Z,22.88
2023-04-08T09:16:57.673Z,22.85
2023-04-08T09:20:22.244Z,22.76
2023-04-08T09:23:23.183Z,22.70
2023-04-08T09:26:25.192Z,22.70
2023-04-08T09:29:27.634Z,22.88
2023-04-08T09:32:29.344Z,23.06
2023-04-08T09:35:29.280Z,23.27
2023-04-08T09:38:30.304Z,23.56
2023-04-08T09:41:32.623Z,23.57
2023-04-08T09:44:38.227Z,23.26
2023-04-08T09:47:39.347Z,23.02
2023-04-08T09:50:42.253Z,22.83
2023-04-08T09:53:43.199Z,22.53
2023-04-08T09:56:45.236Z,22.16
2023-04-08T09:59:46.219Z,21.56
2023-04-08T10:02:48.469Z,21.06
2023-04-08T10:05:50.240Z,20.81
2023-04-08T10:08:51.192Z,20.49
2023-04-08T10:11:51.270Z,20.08
2023-04-08T10:14:52.218Z,19.94
2023-04-08T10:17:53.290Z,20.06
2023-04-08T10:20:54.307Z,20.21
2023-04-08T10:24:13.771Z,20.13
2023-04-08T10:27:20.305Z,20.08
2023-04-08T10:30:40.280Z,20.05
2023-04-08T10:33:50.447Z,19.82
2023-04-08T10:36:51.306Z,19.57
2023-04-08T10:39:53.289Z,19.29
2023-04-08T10:42:54.316Z,19.01
2023-04-08T10:45:58.289Z,18.92
2023-04-08T10:48:59.304Z,18.84
2023-04-08T10:52:08.610Z,18.61
2023-04-08T10:55:08.692Z,18.62
2023-04-08T10:58:08.300Z,18.61
2023-04-08T11:01:08.347Z,18.60
2023-04-08T11:04:08.380Z,18.53
2023-04-08T11:07:12.548Z,18.58
2023-04-08T11:10:24.375Z,18.69
2023-04-08T11:13:30.334Z,18.81
2023-04-08T11:16:30.547Z,19.04
2023-04-08T11:19:30.659Z,19.32
2023-04-08T11:22:33.385Z,19.86
2023-04-08T11:25:35.423Z,20.49
2023-04-08T11:28:37.462Z,21.24
2023-04-08T11:31:37.411Z,21.89
2023-04-08T11:34:38.569Z,22.09
2023-04-08T11:37:39.390Z,22.27
2023-04-08T11:40:45.443Z,22.43
2023-04-08T11:43:46.359Z,22.47
2023-04-08T11:46:47.535Z,22.71
2023-04-08T11:49:56.411Z,22.96
2023-04-08T11:52:58.424Z,23.25
2023-04-08T11:55:58.480Z,23.66
2023-04-08T11:59:00.657Z,23.99
2023-04-08T12:02:01.508Z,24.27
2023-04-08T12:05:01.468Z,24.43
2023-04-08T12:08:02.471Z,24.17
2023-04-08T12:11:16.562Z,23.97
2023-04-08T12:14:20.454Z,23.83
2023-04-08T12:17:20.441Z,23.40
2023-04-08T12:20:23.503Z,23.09
2023-04-08T12:23:25.482Z,23.04
2023-04-08T12:26:25.513Z,23.17
2023-04-08T12:29:26.642Z,23.07
2023-04-08T12:32:26.506Z,22.99
2023-04-08T12:35:26.473Z,22.67
2023-04-08T12:38:26.502Z,22.83
2023-04-08T12:41:26.583Z,23.24
2023-04-08T12:44:26.520Z,23.37
2023-04-08T12:47:27.555Z,23.13
2023-04-08T12:50:29.539Z,22.82
2023-04-08T12:53:31.528Z,22.29
2023-04-08T12:56:32.555Z,21.62
2023-04-08T12:59:35.574Z,20.73
2023-04-08T13:02:35.675Z,20.10
2023-04-08T13:05:43.386Z,19.64
2023-04-08T13:08:43.751Z,19.24
2023-04-08T13:11:49.600Z,18.80
2023-04-08T13:14:50.668Z,18.45
2023-04-08T13:17:51.643Z,18.17
2023-04-08T13:20:55.611Z,17.87
2023-04-08T13:23:56.575Z,17.53
2023-04-08T13:26:57.611Z,17.20
2023-04-08T13:30:00.592Z,16.84
2023-04-08T13:33:04.896Z,16.42
2023-04-08T13:36:20.772Z,15.87
2023-04-08T13:39:23.770Z,15.30
2023-04-08T13:42:25.692Z,14.81
2023-04-08T13:45:26.637Z,14.44
2023-04-08T13:48:26.745Z,14.23
2023-04-08T13:51:29.620Z,14.02
2023-04-08T13:54:35.644Z,13.74
2023-04-08T13:57:35.764Z,13.45
2023-04-08T14:00:39.704Z,13.16
2023-04-08T14:03:42.643Z,13.00
2023-04-08T14:06:42.595Z,12.86
2023-04-08T14:09:43.682Z,12.85
2023-04-08T14:12:43.686Z,12.92
2023-04-08T14:15:46.797Z,13.00
2023-04-08T14:18:49.222Z,13.02
2023-04-08T14:21:49.751Z,13.06
2023-04-08T14:24:50.699Z,13.11
2023-04-08T14:27:57.322Z,13.19
2023-04-08T14:31:03.172Z,13.29
2023-04-08T14:34:07.763Z,13.43
2023-04-08T14:37:08.759Z,13.61
2023-04-08T14:40:08.725Z,13.79
2023-04-08T14:43:10.790Z,13.97
2023-04-08T14:46:10.773Z,14.16
2023-04-08T14:49:10.705Z,14.34
2023-04-08T14:52:10.764Z,14.59
2023-04-08T14:55:10.714Z,14.86
2023-04-08T14:58:10.919Z,15.15
2023-04-08T15:01:11.806Z,15.36
2023-04-08T15:04:11.818Z,15.45
2023-04-08T15:07:15.812Z,15.46
2023-04-08T15:10:15.758Z,15.46
2023-04-08T15:13:16.804Z,15.50
2023-04-08T15:16:16.829Z,15.56
2023-04-08T15:19:17.802Z,15.55
2023-04-08T15:22:18.952Z,15.33
2023-04-08T15:25:18.842Z,15.02
2023-04-08T15:28:18.888Z,14.58
2023-04-08T15:31:18.918Z,14.27
2023-04-08T15:34:18.802Z,14.00
2023-04-08T15:37:19.835Z,13.59
2023-04-08T15:40:20.844Z,13.10
2023-04-08T15:43:21.889Z,12.75
2023-04-08T15:46:21.863Z,12.56
2023-04-08T15:49:22.865Z,12.46
2023-04-08T15:52:23.863Z,12.38
2023-04-08T15:55:25.284Z,12.25
2023-04-08T15:58:25.818Z,12.20
2023-04-08T16:01:25.991Z,12.20
2023-04-08T16:04:31.600Z,12.15
2023-04-08T16:07:31.923Z,12.09
2023-04-08T16:10:31.934Z,12.04
2023-04-08T16:13:31.869Z,12.04
2023-04-08T16:16:32.050Z,12.04
2023-04-08T16:19:33.976Z,12.04
2023-04-08T16:22:26.973Z,12.03
2023-04-08T16:25:28.221Z,12.04
2023-04-08T16:28:29.985Z,12.06
2023-04-08T16:34:31.308Z,12.01
2023-04-08T16:37:33.004Z,12.01
2023-04-08T16:40:32.913Z,11.97
2023-04-08T16:43:32.938Z,11.90
2023-04-08T16:46:33.994Z,11.80
2023-04-08T16:49:33.927Z,11.74
2023-04-08T16:52:34.059Z,11.71
2023-04-08T16:55:34.936Z,11.70
2023-04-08T16:58:35.923Z,11.72
2023-04-08T17:01:42.077Z,11.73
2023-04-08T17:04:41.955Z,11.74
2023-04-08T17:07:41.990Z,11.77
2023-04-08T17:10:42.260Z,11.79
2023-04-08T17:13:43.059Z,11.81
2023-04-08T17:16:46.143Z,11.84
2023-04-08T17:19:46.071Z,11.88
2023-04-08T17:22:46.023Z,11.91
2023-04-08T17:25:46.003Z,11.94
2023-04-08T17:28:46.075Z,11.97
2023-04-08T17:31:47.094Z,12.00
2023-04-08T17:34:47.057Z,12.03
2023-04-08T17:37:51.047Z,12.01
2023-04-08T17:40:51.224Z,12.00
2023-04-08T17:43:53.066Z,11.98
2023-04-08T17:46:54.072Z,11.96
2023-04-08T17:49:54.063Z,11.97
2023-04-08T17:52:59.054Z,11.98
2023-04-08T17:56:01.096Z,11.98
2023-04-08T17:59:02.170Z,11.96
2023-04-08T18:02:07.191Z,11.91
2023-04-08T18:05:09.743Z,11.90
2023-04-08T18:08:10.077Z,11.87
2023-04-08T18:11:11.131Z,11.85
2023-04-08T18:14:13.171Z,11.81
2023-04-08T18:17:13.146Z,11.78
2023-04-08T18:20:14.131Z,11.73
2023-04-08T18:23:14.073Z,11.66
2023-04-08T18:26:14.189Z,11.62
2023-04-08T18:29:14.113Z,11.59
2023-04-08T18:32:15.167Z,11.57
2023-04-08T18:35:15.145Z,11.57
2023-04-08T18:38:15.185Z,11.57
2023-04-08T18:41:16.157Z,11.60
2023-04-08T18:44:16.159Z,11.62
2023-04-08T18:47:16.150Z,11.62
2023-04-08T18:50:16.228Z,11.58
2023-04-08T18:53:18.186Z,11.57
2023-04-08T18:56:18.165Z,11.53
2023-04-08T18:59:20.149Z,11.49
2023-04-08T19:02:20.263Z,11.45
2023-04-08T19:05:21.260Z,11.42
2023-04-08T19:08:22.147Z,11.40
2023-04-08T19:11:22.215Z,11.37
2023-04-08T19:14:22.235Z,11.35
2023-04-08T19:17:24.337Z,11.34
2023-04-08T19:20:25.234Z,11.32
2023-04-08T19:23:25.224Z,11.27
2023-04-08T19:26:25.276Z,11.19
2023-04-08T19:29:26.366Z,11.14
2023-04-08T19:32:27.297Z,11.11
2023-04-08T19:35:27.206Z,11.08
2023-04-08T19:38:28.236Z,11.06
2023-04-08T19:41:29.223Z,11.05
2023-04-08T19:44:32.296Z,11.06
2023-04-08T19:47:32.272Z,11.04
2023-04-08T19:50:32.322Z,11.03
2023-04-08T19:53:32.243Z,11.03
2023-04-08T19:56:32.293Z,11.02
2023-04-08T19:59:32.228Z,11.03
2023-04-08T20:02:32.501Z,11.04
2023-04-08T20:05:33.254Z,11.04
2023-04-08T20:08:35.307Z,11.05
2023-04-08T20:11:35.340Z,11.05
2023-04-08T20:14:38.307Z,11.03
2023-04-08T20:17:38.451Z,11.01
2023-04-08T20:20:38.300Z,10.99
2023-04-08T20:23:39.335Z,10.96
2023-04-08T20:26:39.320Z,10.92
2023-04-08T20:29:39.325Z,10.87
2023-04-08T20:32:40.400Z,10.83
2023-04-08T20:35:40.411Z,10.78
2023-04-08T20:38:43.049Z,10.65
2023-04-08T20:41:43.626Z,10.46
2023-04-08T20:44:44.505Z,10.27
2023-04-08T20:47:50.478Z,10.14
2023-04-08T20:50:51.338Z,10.07
2023-04-08T20:53:52.337Z,10.00
2023-04-08T20:56:52.353Z,9.95
2023-04-08T20:59:55.455Z,9.89
2023-04-08T21:02:57.468Z,9.83
2023-04-08T21:05:58.357Z,9.80
2023-04-08T21:09:01.465Z,9.75
2023-04-08T21:12:04.446Z,9.70
2023-04-08T21:15:04.795Z,9.67
2023-04-08T21:18:05.474Z,9.65
2023-04-08T21:21:07.585Z,9.63
2023-04-08T21:24:07.423Z,9.62
2023-04-08T21:27:07.444Z,9.61
2023-04-08T21:30:07.412Z,9.61
2023-04-08T21:33:07.523Z,9.61
2023-04-08T21:36:08.505Z,9.59
2023-04-08T21:39:08.427Z,9.57
2023-04-08T21:42:09.486Z,9.55
2023-04-08T21:45:09.478Z,9.53
2023-04-08T21:48:09.571Z,9.51
2023-04-08T21:51:09.453Z,9.48
2023-04-08T21:54:10.461Z,9.42
2023-04-08T21:57:10.482Z,9.35
2023-04-08T22:00:18.517Z,9.30
2023-04-08T22:03:20.575Z,9.22
2023-04-08T22:06:31.590Z,9.16
2023-04-08T22:09:33.490Z,9.10
2023-04-08T22:12:33.532Z,9.02
2023-04-08T22:15:42.538Z,8.87
2023-04-08T22:18:44.546Z,8.76
2023-04-08T22:21:49.581Z,8.70
2023-04-08T22:24:49.984Z,8.68
2023-04-08T22:27:50.515Z,8.67
2023-04-08T22:30:50.564Z,8.66
2023-04-08T22:33:56.538Z,8.65
2023-04-08T22:36:58.823Z,8.64
2023-04-08T22:40:00.565Z,8.63
2023-04-08T22:43:00.585Z,8.60
2023-04-08T22:46:01.609Z,8.58
2023-04-08T22:49:02.599Z,8.56
2023-04-08T22:52:04.799Z,8.51
2023-04-08T22:55:05.570Z,8.48
2023-04-08T22:58:11.823Z,8.43
2023-04-08T23:01:11.752Z,8.37
2023-04-08T23:04:12.703Z,8.32
2023-04-08T23:07:16.631Z,8.27
2023-04-08T23:10:18.645Z,8.22
2023-04-08T23:13:19.686Z,8.17
2023-04-08T23:16:21.728Z,8.13
2023-04-08T23:19:24.645Z,8.09
2023-04-08T23:22:25.714Z,8.05
2023-04-08T23:25:25.697Z,8.00
2023-04-08T23:28:31.663Z,7.96
2023-04-08T23:31:31.712Z,7.92
2023-04-08T23:34:32.630Z,7.87
2023-04-08T23:37:32.710Z,7.82
2023-04-08T23:40:33.709Z,7.77
2023-04-08T23:43:41.707Z,7.72
2023-04-08T23:46:41.711Z,7.67
2023-04-08T23:49:42.671Z,7.62
2023-04-08T23:52:43.755Z,7.57
2023-04-08T23:55:47.046Z,7.52
2023-04-08T23:58:46.691Z,7.46
